createdAt,value
2023-03-27T00:02:09.096Z,1.65
2023-03-27T00:04:36.061Z,1.23
2023-03-27T00:07:02.956Z,0.98
2023-03-27T00:09:29.898Z,1.40
2023-03-27T00:11:56.690Z,1.58
2023-03-27T00:14:23.588Z,1.45
2023-03-27T00:16:50.477Z,1.20
2023-03-27T00:19:19.063Z,1.45
2023-03-27T00:21:46.085Z,0.93
2023-03-27T00:24:12.913Z,1.60
2023-03-27T00:26:39.856Z,1.38
2023-03-27T00:29:06.890Z,1.27
2023-03-27T00:31:33.714Z,1.20
2023-03-27T00:34:00.464Z,1.25
2023-03-27T00:36:28.539Z,0.88
2023-03-27T00:38:55.385Z,1.10
2023-03-27T00:41:22.786Z,1.60
2023-03-27T00:43:52.846Z,1.00
2023-03-27T00:46:30.695Z,1.33
2023-03-27T00:49:01.141Z,1.30
2023-03-27T00:51:30.642Z,1.30
2023-03-27T00:53:58.958Z,2.03
2023-03-27T00:56:25.960Z,1.13
2023-03-27T00:58:56.767Z,1.00
2023-03-27T01:01:26.618Z,0.98
2023-03-27T01:03:54.308Z,1.83
2023-03-27T01:06:21.978Z,1.15
2023-03-27T01:08:50.075Z,1.30
2023-03-27T01:11:31.648Z,1.00
2023-03-27T01:14:12.074Z,1.05
2023-03-27T01:16:47.755Z,1.38
2023-03-27T01:19:44.593Z,1.00
2023-03-27T01:22:54.138Z,1.00
2023-03-27T01:25:41.997Z,0.90
2023-03-27T01:28:35.798Z,1.15
2023-03-27T01:31:12.426Z,0.85
2023-03-27T01:33:56.418Z,1.23
2023-03-27T01:36:48.787Z,1.30
2023-03-27T01:39:38.811Z,1.67
2023-03-27T01:42:15.334Z,0.82
2023-03-27T01:44:48.282Z,1.33
2023-03-27T01:47:27.606Z,1.20
2023-03-27T01:49:59.880Z,1.20
2023-03-27T01:52:33.024Z,1.38
2023-03-27T01:55:05.193Z,0.88
2023-03-27T01:57:38.597Z,0.80
2023-03-27T02:00:19.718Z,0.90
2023-03-27T02:02:51.709Z,0.98
2023-03-27T02:05:23.505Z,0.95
2023-03-27T02:07:55.029Z,1.15
2023-03-27T02:10:27.584Z,0.90
2023-03-27T02:12:58.690Z,1.15
2023-03-27T02:15:30.629Z,0.90
2023-03-27T02:18:00.349Z,0.75
2023-03-27T02:20:27.104Z,0.90
2023-03-27T02:22:53.849Z,1.00
2023-03-27T02:25:28.449Z,0.82
2023-03-27T02:28:12.615Z,0.95
2023-03-27T02:30:44.681Z,1.05
2023-03-27T02:33:19.185Z,0.80
2023-03-27T02:35:56.211Z,0.70
2023-03-27T02:38:30.594Z,0.75
2023-03-27T02:41:08.604Z,0.80
2023-03-27T02:43:38.862Z,0.60
2023-03-27T02:46:13.346Z,1.50
2023-03-27T02:48:43.052Z,0.60
2023-03-27T02:51:15.178Z,0.80
2023-03-27T02:53:47.297Z,0.60
2023-03-27T02:56:19.366Z,1.00
2023-03-27T02:58:52.106Z,0.90
2023-03-27T03:01:21.858Z,0.88
2023-03-27T03:03:55.118Z,1.45
2023-03-27T03:06:23.419Z,0.80
2023-03-27T03:08:50.589Z,0.88
2023-03-27T03:11:18.781Z,1.02
2023-03-27T03:13:45.550Z,0.98
2023-03-27T03:16:12.362Z,0.90
2023-03-27T03:18:39.261Z,0.85
2023-03-27T03:21:06.346Z,1.23
2023-03-27T03:23:33.121Z,1.13
2023-03-27T03:25:59.873Z,1.10
2023-03-27T03:28:27.961Z,0.80
2023-03-27T03:30:55.336Z,1.40
2023-03-27T03:33:22.424Z,0.93
2023-03-27T03:35:50.580Z,1.10
2023-03-27T03:38:17.828Z,1.30
2023-03-27T03:40:45.282Z,1.30
2023-03-27T03:43:12.003Z,1.13
2023-03-27T03:45:40.076Z,1.50
2023-03-27T03:48:07.005Z,1.50
2023-03-27T03:50:33.815Z,1.50
2023-03-27T03:53:00.669Z,1.35
2023-03-27T03:55:27.430Z,1.33
2023-03-27T03:57:54.162Z,1.77
2023-03-27T04:00:21.634Z,1.42
2023-03-27T04:02:51.571Z,1.13
2023-03-27T04:05:18.470Z,1.35
2023-03-27T04:07:45.243Z,1.15
2023-03-27T04:10:13.821Z,0.98
2023-03-27T04:12:40.696Z,0.85
2023-03-27T04:15:08.099Z,1.20
2023-03-27T04:17:35.021Z,1.15
2023-03-27T04:20:03.849Z,0.90
2023-03-27T04:22:30.561Z,1.10
2023-03-27T04:24:57.322Z,1.17
2023-03-27T04:27:24.085Z,1.20
2023-03-27T04:29:50.814Z,0.68
2023-03-27T04:32:17.572Z,1.10
2023-03-27T04:34:44.407Z,1.23
2023-03-27T04:37:14.155Z,1.25
2023-03-27T04:39:42.290Z,1.20
2023-03-27T04:42:09.398Z,1.23
2023-03-27T04:44:36.720Z,1.20
2023-03-27T04:47:03.994Z,1.30
2023-03-27T04:49:31.384Z,1.73
2023-03-27T04:51:58.153Z,1.30
2023-03-27T04:54:26.261Z,1.20
2023-03-27T04:56:53.025Z,1.60
2023-03-27T04:59:19.813Z,1.27
2023-03-27T05:01:46.673Z,1.40
2023-03-27T05:04:13.498Z,1.10
2023-03-27T05:06:40.737Z,1.20
2023-03-27T05:09:07.625Z,1.00
2023-03-27T05:11:35.694Z,1.60
2023-03-27T05:14:02.439Z,1.40
2023-03-27T05:16:29.303Z,1.17
2023-03-27T05:18:56.146Z,1.20
2023-03-27T05:21:22.877Z,1.13
2023-03-27T05:23:49.617Z,1.30
2023-03-27T05:26:16.427Z,1.40
2023-03-27T05:28:44.539Z,1.20
2023-03-27T05:31:11.466Z,1.23
2023-03-27T05:33:38.209Z,1.15
2023-03-27T05:36:05.837Z,1.10
2023-03-27T05:38:32.577Z,1.15
2023-03-27T05:40:59.398Z,1.20
2023-03-27T05:43:26.236Z,1.35
2023-03-27T05:45:54.406Z,1.55
2023-03-27T05:48:21.157Z,1.30
2023-03-27T05:50:47.919Z,1.30
2023-03-27T05:53:14.682Z,1.30
2023-03-27T05:55:41.446Z,1.40
2023-03-27T05:58:09.254Z,1.42
2023-03-27T06:00:36.372Z,1.60
2023-03-27T06:03:04.971Z,1.40
2023-03-27T06:05:31.948Z,1.05
2023-03-27T06:07:58.787Z,1.33
2023-03-27T06:10:27.271Z,1.55
2023-03-27T06:12:59.098Z,0.90
2023-03-27T06:15:26.020Z,1.10
2023-03-27T06:17:53.248Z,1.50
2023-03-27T06:20:21.555Z,1.05
2023-03-27T06:22:49.691Z,1.00
2023-03-27T06:25:17.288Z,1.10
2023-03-27T06:27:45.164Z,1.35
2023-03-27T06:30:12.837Z,1.20
2023-03-27T06:32:44.129Z,1.10
2023-03-27T06:35:11.146Z,1.52
2023-03-27T06:37:41.536Z,1.50
2023-03-27T06:42:35.873Z,1.30
2023-03-27T06:45:02.718Z,2.15
2023-03-27T06:47:29.525Z,2.38
2023-03-27T06:49:56.351Z,1.58
2023-03-27T06:52:23.429Z,1.40
2023-03-27T06:54:51.493Z,1.70
2023-03-27T06:57:18.290Z,2.30
2023-03-27T06:59:45.075Z,1.70
2023-03-27T07:02:12.489Z,2.30
2023-03-27T07:04:39.270Z,2.25
2023-03-27T07:07:06.068Z,1.80
2023-03-27T07:09:32.797Z,1.48
2023-03-27T07:12:00.920Z,1.50
2023-03-27T07:14:27.717Z,1.40
2023-03-27T07:16:54.436Z,1.40
2023-03-27T07:19:21.248Z,1.40
2023-03-27T07:21:48.004Z,1.92
2023-03-27T07:24:14.745Z,2.00
2023-03-27T07:26:42.523Z,0.90
2023-03-27T07:29:10.874Z,1.38
2023-03-27T07:34:09.166Z,1.58
2023-03-27T07:36:36.115Z,1.48
2023-03-27T07:39:02.953Z,1.70
2023-03-27T07:41:29.714Z,1.13
2023-03-27T07:43:56.972Z,2.08
2023-03-27T07:46:25.254Z,1.55
2023-03-27T07:48:52.404Z,1.40
2023-03-27T07:51:19.487Z,1.02
2023-03-27T07:53:46.303Z,1.27
2023-03-27T07:56:13.020Z,1.50
2023-03-27T07:58:39.923Z,1.35
2023-03-27T08:01:06.845Z,1.58
2023-03-27T08:03:35.072Z,1.30
2023-03-27T08:06:07.304Z,2.67
2023-03-27T08:08:34.404Z,1.20
2023-03-27T08:11:03.549Z,5.68
2023-03-27T08:13:30.944Z,2.10
2023-03-27T08:16:14.772Z,1.25
2023-03-27T08:18:43.183Z,1.20
2023-03-27T08:21:10.594Z,1.08
2023-03-27T08:23:37.886Z,0.80
2023-03-27T08:26:05.291Z,1.02
2023-03-27T08:28:33.870Z,1.10
2023-03-27T08:31:03.339Z,0.90
2023-03-27T08:33:30.447Z,0.95
2023-03-27T08:35:58.738Z,1.25
2023-03-27T08:38:26.858Z,1.40
2023-03-27T08:40:55.989Z,1.73
2023-03-27T08:43:25.737Z,1.73
2023-03-27T08:45:55.921Z,1.33
2023-03-27T08:48:28.630Z,0.90
2023-03-27T08:50:59.242Z,1.73
2023-03-27T08:53:34.459Z,0.90
2023-03-27T08:56:01.390Z,0.95
2023-03-27T08:58:28.185Z,1.20
2023-03-27T09:01:03.051Z,0.88
2023-03-27T09:03:33.591Z,1.98
2023-03-27T09:06:06.452Z,1.52
2023-03-27T09:08:43.103Z,0.90
2023-03-27T09:11:21.686Z,1.40
2023-03-27T09:13:50.786Z,1.35
2023-03-27T09:16:20.674Z,2.00
2023-03-27T09:18:54.141Z,1.60
2023-03-27T09:21:31.389Z,2.17
2023-03-27T09:24:01.067Z,1.67
2023-03-27T09:26:34.262Z,1.55
2023-03-27T09:29:02.786Z,2.05
2023-03-27T09:31:32.892Z,4.22
2023-03-27T09:34:02.610Z,1.90
2023-03-27T09:36:31.241Z,1.63
2023-03-27T09:39:03.414Z,1.67
2023-03-27T09:41:34.470Z,2.35
2023-03-27T09:44:06.257Z,1.88
2023-03-27T09:46:36.470Z,1.38
2023-03-27T09:49:09.497Z,1.98
2023-03-27T09:51:40.189Z,0.80
2023-03-27T09:54:07.587Z,1.58
2023-03-27T09:56:38.384Z,1.13
2023-03-27T09:59:11.340Z,1.48
2023-03-27T10:01:45.794Z,1.10
2023-03-27T10:04:16.170Z,1.25
2023-03-27T10:06:46.710Z,1.70
2023-03-27T10:09:22.821Z,1.15
2023-03-27T10:11:50.971Z,1.95
2023-03-27T10:14:19.650Z,1.20
2023-03-27T10:16:47.386Z,0.80
2023-03-27T10:19:23.494Z,1.60
2023-03-27T10:21:52.160Z,1.50
2023-03-27T10:24:21.633Z,2.13
2023-03-27T10:26:48.914Z,2.38
2023-03-27T10:29:23.251Z,8.68
2023-03-27T10:31:51.990Z,1.98
2023-03-27T10:34:30.045Z,2.83
2023-03-27T10:36:58.551Z,2.10
2023-03-27T10:39:28.585Z,1.02
2023-03-27T10:41:56.060Z,0.70
2023-03-27T10:44:26.812Z,0.95
2023-03-27T10:46:53.917Z,0.70
2023-03-27T10:49:28.569Z,0.88
2023-03-27T10:52:09.220Z,0.45
2023-03-27T10:54:44.623Z,0.70
2023-03-27T10:57:17.377Z,0.98
2023-03-27T10:59:49.322Z,0.43
2023-03-27T11:02:20.191Z,0.60
2023-03-27T11:04:51.781Z,0.50
2023-03-27T11:07:26.968Z,0.60
2023-03-27T11:10:01.597Z,0.80
2023-03-27T11:12:31.333Z,0.77
2023-03-27T11:15:03.378Z,0.77
2023-03-27T11:17:36.083Z,0.60
2023-03-27T11:20:05.884Z,0.60
2023-03-27T11:22:38.748Z,0.80
2023-03-27T11:25:13.310Z,1.05
2023-03-27T11:27:42.983Z,1.05
2023-03-27T11:30:36.438Z,1.67
2023-03-27T11:33:18.185Z,1.70
2023-03-27T11:35:51.858Z,1.83
2023-03-27T11:38:25.151Z,0.93
2023-03-27T11:40:51.959Z,1.08
2023-03-27T11:43:20.543Z,2.05
2023-03-27T11:45:58.599Z,0.95
2023-03-27T11:49:03.648Z,0.90
2023-03-27T11:51:43.771Z,0.90
2023-03-27T11:54:25.334Z,0.90
2023-03-27T11:56:54.044Z,1.50
2023-03-27T11:59:41.308Z,3.10
2023-03-27T12:02:21.296Z,1.98
2023-03-27T12:04:54.431Z,2.33
2023-03-27T12:07:38.021Z,0.93
2023-03-27T12:10:29.652Z,1.00
2023-03-27T12:13:41.339Z,0.98
2023-03-27T12:16:24.739Z,1.10
2023-03-27T12:19:10.642Z,1.30
2023-03-27T12:21:57.040Z,1.10
2023-03-27T12:24:36.357Z,1.00
2023-03-27T12:27:35.197Z,1.42
2023-03-27T12:30:14.974Z,1.85
2023-03-27T12:33:14.192Z,2.53
2023-03-27T12:35:47.037Z,3.47
2023-03-27T12:38:22.802Z,2.40
2023-03-27T12:41:00.651Z,1.83
2023-03-27T12:43:31.620Z,1.85
2023-03-27T12:46:13.695Z,1.80
2023-03-27T12:48:55.182Z,2.50
2023-03-27T12:51:43.638Z,2.40
2023-03-27T12:54:24.785Z,2.70
2023-03-27T12:56:58.551Z,2.50
2023-03-27T12:59:28.999Z,4.63
2023-03-27T13:02:36.942Z,3.65
2023-03-27T13:05:34.976Z,2.08
2023-03-27T13:08:17.726Z,1.35
2023-03-27T13:10:56.590Z,2.78
2023-03-27T13:16:12.111Z,0.90
2023-03-27T13:18:56.194Z,1.00
2023-03-27T13:21:36.066Z,1.27
2023-03-27T13:24:19.042Z,1.95
2023-03-27T13:27:01.419Z,0.98
2023-03-27T13:29:32.889Z,1.10
2023-03-27T13:32:03.545Z,0.90
2023-03-27T13:34:40.371Z,0.90
2023-03-27T13:37:44.357Z,1.08
2023-03-27T13:40:21.994Z,1.23
2023-03-27T13:42:52.384Z,1.40
2023-03-27T13:45:22.838Z,2.10
2023-03-27T13:48:27.120Z,1.08
2023-03-27T13:51:13.831Z,0.88
2023-03-27T13:53:53.786Z,2.83
2023-03-27T13:56:40.125Z,3.97
2023-03-27T13:59:51.577Z,6.65
2023-03-27T14:03:03.662Z,3.60
2023-03-27T14:06:05.179Z,3.70
2023-03-27T14:08:40.247Z,2.42
2023-03-27T14:11:29.982Z,1.50
2023-03-27T14:14:23.316Z,1.40
2023-03-27T14:17:23.490Z,1.63
2023-03-27T14:20:13.792Z,1.30
2023-03-27T14:22:47.982Z,2.70
2023-03-27T14:25:17.670Z,1.67
2023-03-27T14:27:49.157Z,1.70
2023-03-27T14:30:18.418Z,1.90
2023-03-27T14:32:45.907Z,1.20
2023-03-27T14:35:33.840Z,3.92
2023-03-27T14:38:03.787Z,5.07
2023-03-27T14:40:32.942Z,1.40
2023-03-27T14:43:01.474Z,1.08
2023-03-27T14:45:31.494Z,0.90
2023-03-27T14:48:01.598Z,0.90
2023-03-27T14:50:29.628Z,1.08
2023-03-27T14:52:58.439Z,1.38
2023-03-27T14:55:31.428Z,0.60
2023-03-27T14:58:01.946Z,1.20
2023-03-27T15:00:32.020Z,1.45
2023-03-27T15:03:04.320Z,1.10
2023-03-27T15:05:31.208Z,1.23
2023-03-27T15:07:59.640Z,0.80
2023-03-27T15:10:29.953Z,1.65
2023-03-27T15:12:57.123Z,0.70
2023-03-27T15:15:27.171Z,0.50
2023-03-27T15:17:55.370Z,0.60
2023-03-27T15:20:25.422Z,0.70
2023-03-27T15:22:57.004Z,0.55
2023-03-27T15:25:34.594Z,0.82
2023-03-27T15:28:07.001Z,1.00
2023-03-27T15:30:38.728Z,0.90
2023-03-27T15:33:12.814Z,1.30
2023-03-27T15:35:43.444Z,1.00
2023-03-27T15:38:13.974Z,0.85
2023-03-27T15:40:44.368Z,1.58
2023-03-27T15:43:22.568Z,2.25
2023-03-27T15:46:12.791Z,0.77
2023-03-27T15:48:41.038Z,1.35
2023-03-27T15:51:10.476Z,1.20
2023-03-27T15:53:39.419Z,1.15
2023-03-27T15:58:48.436Z,1.00
2023-03-27T16:01:20.036Z,0.90
2023-03-27T16:03:47.443Z,0.98
2023-03-27T16:06:24.791Z,1.27
2023-03-27T16:08:51.613Z,0.93
2023-03-27T16:11:35.568Z,1.02
2023-03-27T16:14:02.860Z,1.40
2023-03-27T16:16:31.104Z,0.90
2023-03-27T16:18:59.074Z,1.00
2023-03-27T16:21:27.073Z,0.82
2023-03-27T16:23:54.202Z,0.73
2023-03-27T16:26:24.628Z,1.10
2023-03-27T16:28:54.092Z,1.10
2023-03-27T16:31:20.972Z,0.73
2023-03-27T16:33:47.700Z,1.08
2023-03-27T16:36:16.357Z,1.45
2023-03-27T16:38:43.430Z,1.05
2023-03-27T16:41:13.927Z,1.20
2023-03-27T16:43:41.562Z,0.90
2023-03-27T16:46:17.150Z,1.20
2023-03-27T16:48:43.903Z,0.98
2023-03-27T16:51:10.672Z,2.00
2023-03-27T16:53:37.380Z,1.10
2023-03-27T16:56:04.404Z,0.90
2023-03-27T16:58:31.142Z,1.33
2023-03-27T17:00:58.017Z,0.90
2023-03-27T17:03:26.190Z,1.40
2023-03-27T17:05:58.550Z,0.90
2023-03-27T17:08:25.580Z,1.48
2023-03-27T17:10:52.551Z,1.10
2023-03-27T17:13:19.270Z,2.72
2023-03-27T17:15:50.149Z,1.23
2023-03-27T17:18:17.075Z,0.95
2023-03-27T17:20:45.276Z,1.40
2023-03-27T17:23:12.232Z,2.43
2023-03-27T17:25:42.946Z,1.60
2023-03-27T17:28:13.092Z,1.80
2023-03-27T17:30:49.563Z,1.35
2023-03-27T17:33:24.457Z,1.67
2023-03-27T17:35:52.745Z,2.13
2023-03-27T17:38:19.526Z,1.40
2023-03-27T17:40:46.357Z,1.63
2023-03-27T17:43:13.112Z,1.80
2023-03-27T17:45:40.190Z,1.58
2023-03-27T17:48:07.070Z,1.60
2023-03-27T17:50:33.961Z,1.70
2023-03-27T17:53:02.258Z,1.70
2023-03-27T17:55:29.131Z,1.75
2023-03-27T17:58:05.878Z,1.75
2023-03-27T18:00:35.491Z,1.83
2023-03-27T18:03:02.365Z,2.83
2023-03-27T18:05:29.244Z,2.38
2023-03-27T18:07:56.353Z,1.60
2023-03-27T18:10:24.552Z,1.23
2023-03-27T18:12:51.331Z,1.60
2023-03-27T18:15:18.206Z,1.20
2023-03-27T18:17:45.046Z,1.90
2023-03-27T18:20:11.961Z,1.38
2023-03-27T18:22:39.625Z,3.97
2023-03-27T18:25:08.165Z,8.07
2023-03-27T18:27:37.300Z,7.05
2023-03-27T18:30:04.695Z,4.97
2023-03-27T18:32:31.488Z,3.60
2023-03-27T18:34:58.291Z,2.47
2023-03-27T18:37:25.157Z,3.08
2023-03-27T18:39:52.859Z,1.65
2023-03-27T18:42:19.618Z,3.53
2023-03-27T18:44:47.817Z,1.63
2023-03-27T18:47:14.561Z,1.50
2023-03-27T18:49:41.313Z,1.13
2023-03-27T18:52:08.077Z,1.90
2023-03-27T18:54:35.097Z,1.25
2023-03-27T18:57:02.232Z,1.23
2023-03-27T18:59:29.014Z,1.45
2023-03-27T19:01:57.253Z,1.60
2023-03-27T19:04:24.027Z,1.58
2023-03-27T19:06:50.796Z,1.33
2023-03-27T19:09:18.713Z,1.63
2023-03-27T19:11:46.733Z,1.90
2023-03-27T19:14:13.452Z,1.42
2023-03-27T19:16:40.195Z,1.42
2023-03-27T19:19:08.262Z,1.70
2023-03-27T19:21:34.972Z,1.23
2023-03-27T19:24:01.661Z,1.40
2023-03-27T19:26:28.435Z,1.05
2023-03-27T19:28:55.991Z,1.23
2023-03-27T19:31:22.954Z,1.10
2023-03-27T19:33:49.786Z,1.23
2023-03-27T19:36:17.898Z,1.80
2023-03-27T19:38:44.726Z,1.70
2023-03-27T19:41:11.754Z,1.42
2023-03-27T19:43:38.491Z,1.40
2023-03-27T19:46:15.935Z,1.75
2023-03-27T19:48:43.865Z,1.52
2023-03-27T19:51:10.655Z,1.55
2023-03-27T19:53:38.901Z,1.50
2023-03-27T19:56:06.045Z,1.67
2023-03-27T19:58:32.759Z,1.25
2023-03-27T20:00:59.985Z,1.75
2023-03-27T20:03:26.883Z,2.20
2023-03-27T20:05:55.508Z,2.30
2023-03-27T20:08:34.021Z,1.55
2023-03-27T20:11:02.287Z,2.85
2023-03-27T20:13:29.017Z,1.67
2023-03-27T20:15:55.820Z,1.40
2023-03-27T20:18:22.638Z,2.10
2023-03-27T20:20:49.393Z,2.25
2023-03-27T20:23:17.185Z,2.15
2023-03-27T20:25:44.555Z,1.58
2023-03-27T20:28:12.644Z,2.00
2023-03-27T20:30:41.627Z,1.53
2023-03-27T20:33:08.477Z,1.50
2023-03-27T20:35:35.435Z,2.10
2023-03-27T20:38:02.519Z,3.30
2023-03-27T20:40:31.429Z,3.13
2023-03-27T20:43:03.863Z,2.58
2023-03-27T20:45:32.052Z,2.58
2023-03-27T20:47:58.851Z,3.33
2023-03-27T20:50:25.734Z,2.50
2023-03-27T20:52:52.448Z,2.40
2023-03-27T20:55:32.476Z,2.30
2023-03-27T20:58:01.615Z,2.85
2023-03-27T21:00:28.372Z,2.70
2023-03-27T21:02:56.630Z,2.67
2023-03-27T21:05:23.482Z,2.92
2023-03-27T21:07:50.219Z,2.63
2023-03-27T21:10:17.251Z,2.67
2023-03-27T21:12:44.050Z,2.45
2023-03-27T21:15:11.317Z,2.60
2023-03-27T21:17:38.387Z,2.53
2023-03-27T21:20:08.284Z,2.67
2023-03-27T21:22:35.089Z,2.80
2023-03-27T21:25:01.827Z,2.55
2023-03-27T21:27:29.286Z,2.20
2023-03-27T21:29:56.422Z,2.03
2023-03-27T21:32:23.252Z,2.60
2023-03-27T21:34:50.122Z,3.08
2023-03-27T21:37:18.491Z,2.92
2023-03-27T21:39:45.260Z,3.00
2023-03-27T21:42:12.063Z,2.78
2023-03-27T21:44:38.778Z,2.38
2023-03-27T21:47:05.660Z,2.47
2023-03-27T21:49:32.413Z,2.33
2023-03-27T21:51:59.126Z,2.47
2023-03-27T21:54:27.221Z,2.40
2023-03-27T21:56:54.899Z,2.70
2023-03-27T21:59:21.653Z,2.20
2023-03-27T22:01:48.486Z,2.35
2023-03-27T22:04:15.353Z,1.88
2023-03-27T22:06:42.253Z,3.08
2023-03-27T22:09:09.019Z,1.67
2023-03-27T22:11:37.291Z,1.55
2023-03-27T22:14:04.109Z,1.27
2023-03-27T22:16:31.084Z,1.98
2023-03-27T22:18:57.973Z,2.03
2023-03-27T22:21:26.986Z,2.05
2023-03-27T22:26:23.162Z,1.67
2023-03-27T22:31:18.041Z,1.93
2023-03-27T22:33:45.064Z,1.90
2023-03-27T22:36:12.688Z,2.05
2023-03-27T22:38:40.232Z,2.10
2023-03-27T22:41:08.308Z,1.80
2023-03-27T22:43:35.328Z,2.20
2023-03-27T22:46:06.762Z,2.20
2023-03-27T22:48:34.100Z,2.40
2023-03-27T22:51:01.022Z,2.13
2023-03-27T22:53:28.000Z,2.55
2023-03-27T22:55:57.280Z,2.60
2023-03-27T22:58:24.894Z,2.65
2023-03-27T23:00:53.192Z,2.33
2023-03-27T23:03:22.798Z,2.42
2023-03-27T23:05:50.488Z,2.70
2023-03-27T23:08:17.775Z,2.63
2023-03-27T23:10:45.369Z,2.50
2023-03-27T23:13:12.500Z,2.75
2023-03-27T23:15:39.357Z,2.20
2023-03-27T23:18:06.535Z,2.90
2023-03-27T23:20:34.723Z,2.85
2023-03-27T23:23:01.501Z,2.85
2023-03-27T23:25:28.255Z,2.30
2023-03-27T23:27:54.992Z,2.67
2023-03-27T23:30:21.678Z,3.05
2023-03-27T23:32:48.470Z,2.67
2023-03-27T23:35:15.251Z,3.13
2023-03-27T23:37:43.782Z,2.97
2023-03-27T23:40:10.633Z,2.00
2023-03-27T23:42:37.437Z,2.95
2023-03-27T23:45:04.678Z,2.83
2023-03-27T23:47:35.339Z,3.00
2023-03-27T23:50:02.308Z,2.03
2023-03-27T23:52:29.185Z,2.83
2023-03-27T23:54:57.342Z,2.63
2023-03-27T23:57:24.128Z,2.47
2023-03-27T23:59:50.956Z,2.72
